Time,TemperatureF,DewpointF,PressureIn,WindDirection,WindDirectionDegrees,WindSpeedMPH,WindSpeedGustMPH,Humidity,HourlyPrecipIn,Conditions,Clouds,dailyrainin,SoftwareType,DateUTC
2013-08-21 00:12:00,59.0,39.0,30.09,SW,214,0.0,3.0,47,0.00,,,0.00,,2013-08-21 06:12:00,
2013-08-21 00:22:00,58.0,37.0,30.10,SSW,208,0.0,2.0,45,0.00,,,0.00,,2013-08-21 06:22:00,
2013-08-21 00:42:00,58.0,37.0,30.10,SW,214,0.0,3.0,46,0.00,,,0.00,,2013-08-21 06:42:00,
2013-08-21 00:52:00,58.0,38.0,30.10,WNW,288,0.0,5.0,47,0.00,,,0.00,,2013-08-21 06:52:00,
2013-08-21 01:11:00,57.0,38.0,30.10,WNW,288,0.0,0.0,49,0.00,,,0.00,,2013-08-21 07:11:00,
2013-08-21 01:21:00,56.0,38.0,30.11,WNW,288,0.0,1.0,51,0.00,,,0.00,,2013-08-21 07:21:00,
2013-08-21 01:42:00,55.0,37.0,30.11,WNW,289,0.0,2.0,51,0.00,,,0.00,,2013-08-21 07:42:00,
2013-08-21 01:53:00,54.0,39.0,30.11,SW,219,0.0,2.0,56,0.00,,,0.00,,2013-08-21 07:53:00,
2013-08-21 02:12:00,53.0,38.0,30.11,SW,219,0.0,2.0,57,0.00,,,0.00,,2013-08-21 08:12:00,
2013-08-21 02:22:00,52.0,38.0,30.12,SW,222,0.0,3.0,58,0.00,,,0.00,,2013-08-21 08:22:00,
2013-08-21 02:52:00,52.0,38.0,30.12,SW,225,2.0,6.0,58,0.00,,,0.00,,2013-08-21 08:52:00,
2013-08-21 03:11:00,52.0,38.0,30.13,SW,227,0.0,2.0,59,0.00,,,0.00,,2013-08-21 09:11:00,
2013-08-21 03:22:00,52.0,38.0,30.13,WNW,286,1.0,3.0,58,0.00,,,0.00,,2013-08-21 09:22:00,
2013-08-21 03:53:00,50.0,37.0,30.13,WSW,247,0.0,5.0,61,0.00,,,0.00,,2013-08-21 09:53:00,
2013-08-21 04:12:00,50.0,37.0,30.14,West,281,0.0,5.0,61,0.00,,,0.00,,2013-08-21 10:12:00,
2013-08-21 04:23:00,50.0,38.0,30.14,West,281,0.0,1.0,62,0.00,,,0.00,,2013-08-21 10:23:00,
2013-08-21 04:42:00,48.0,36.0,30.14,WNW,293,0.0,2.0,64,0.00,,,0.00,,2013-08-21 10:42:00,
2013-08-21 04:52:00,47.0,37.0,30.15,WNW,294,0.0,2.0,69,0.00,,,0.00,,2013-08-21 10:52:00,
2013-08-21 05:11:00,47.0,38.0,30.15,WNW,294,0.0,0.0,70,0.00,,,0.00,,2013-08-21 11:11:00,
2013-08-21 05:22:00,46.0,38.0,30.15,WNW,294,0.0,0.0,73,0.00,,,0.00,,2013-08-21 11:22:00,
2013-08-21 05:42:00,45.0,38.0,30.16,WNW,294,0.0,1.0,75,0.00,,,0.00,,2013-08-21 11:42:00,
2013-08-21 05:52:00,44.0,38.0,30.16,WNW,294,0.0,1.0,78,0.00,,,0.00,,2013-08-21 11:52:00,
2013-08-21 06:12:00,44.0,38.0,30.17,WNW,294,0.0,1.0,79,0.00,,,0.00,,2013-08-21 12:12:00,
2013-08-21 06:22:00,44.0,38.0,30.17,WNW,294,0.0,3.0,80,0.00,,,0.00,,2013-08-21 12:22:00,
2013-08-21 06:41:00,44.0,38.0,30.18,WNW,294,0.0,1.0,79,0.00,,,0.00,,2013-08-21 12:41:00,
2013-08-21 06:52:00,44.0,37.0,30.18,WNW,301,1.0,5.0,77,0.00,,,0.00,,2013-08-21 12:52:00,
2013-08-21 07:11:00,44.0,38.0,30.19,WNW,302,0.0,3.0,78,0.00,,,0.00,,2013-08-21 13:11:00,
2013-08-21 07:21:00,44.0,38.0,30.19,WNW,297,0.0,4.0,79,0.00,,,0.00,,2013-08-21 13:21:00,
2013-08-21 07:42:00,44.0,39.0,30.20,West,277,0.0,3.0,81,0.00,,,0.00,,2013-08-21 13:42:00,
2013-08-21 07:52:00,44.0,38.0,30.20,West,279,0.0,2.0,79,0.00,,,0.00,,2013-08-21 13:52:00,
2013-08-21 08:11:00,45.0,38.0,30.20,West,279,0.0,2.0,77,0.00,,,0.00,,2013-08-21 14:11:00,
2013-08-21 08:21:00,47.0,40.0,30.21,West,279,0.0,0.0,76,0.00,,,0.00,,2013-08-21 14:21:00,
2013-08-21 08:42:00,49.0,40.0,30.21,West,279,0.0,1.0,72,0.00,,,0.00,,2013-08-21 14:42:00,
2013-08-21 08:52:00,51.0,40.0,30.21,WNW,284,1.0,4.0,67,0.00,,,0.00,,2013-08-21 14:52:00,
2013-08-21 09:11:00,54.0,41.0,30.21,WNW,301,5.0,8.0,61,0.00,,,0.00,,2013-08-21 15:11:00,
2013-08-21 09:22:00,56.0,41.0,30.22,NW,321,2.0,9.0,57,0.00,,,0.00,,2013-08-21 15:22:00,
2013-08-21 09:43:00,58.0,42.0,30.22,NW,316,4.0,8.0,55,0.00,,,0.00,,2013-08-21 15:43:00,
2013-08-21 09:54:00,60.0,42.0,30.22,NW,326,2.0,8.0,52,0.00,,,0.00,,2013-08-21 15:54:00,
2013-08-21 10:24:00,63.0,43.0,30.21,North,360,0.0,6.0,48,0.00,,,0.00,,2013-08-21 16:24:00,
2013-08-21 10:43:00,64.0,43.0,30.21,NNE,17,0.0,3.0,46,0.00,,,0.00,,2013-08-21 16:43:00,
2013-08-21 10:53:00,66.0,43.0,30.21,NNW,331,0.0,1.0,44,0.00,,,0.00,,2013-08-21 16:53:00,
2013-08-21 11:12:00,68.0,45.0,30.21,NE,56,1.0,5.0,43,0.00,,,0.00,,2013-08-21 17:12:00,
2013-08-21 11:23:00,70.0,43.0,30.21,NNE,22,0.0,3.0,38,0.00,,,0.00,,2013-08-21 17:23:00,
2013-08-21 11:53:00,72.0,44.0,30.21,North,5,0.0,4.0,36,0.00,,,0.00,,2013-08-21 17:53:00,
2013-08-21 12:12:00,73.0,45.0,30.20,WNW,300,0.0,4.0,37,0.00,,,0.00,,2013-08-21 18:12:00,
2013-08-21 12:22:00,74.0,43.0,30.20,NE,56,0.0,6.0,33,0.00,,,0.00,,2013-08-21 18:22:00,
2013-08-21 12:42:00,75.0,43.0,30.20,NE,55,0.0,1.0,32,0.00,,,0.00,,2013-08-21 18:42:00,
2013-08-21 12:52:00,75.0,41.0,30.20,ENE,63,0.0,6.0,30,0.00,,,0.00,,2013-08-21 18:52:00,
2013-08-21 13:11:00,76.0,41.0,30.20,East,93,0.0,1.0,28,0.00,,,0.00,,2013-08-21 19:11:00,
2013-08-21 13:22:00,78.0,40.0,30.19,NW,309,0.0,5.0,26,0.00,,,0.00,,2013-08-21 19:22:00,
2013-08-21 13:52:00,77.0,39.0,30.18,NNE,18,2.0,7.0,26,0.00,,,0.00,,2013-08-21 19:52:00,
2013-08-21 14:11:00,78.0,39.0,30.18,NE,43,1.0,5.0,25,0.00,,,0.00,,2013-08-21 20:11:00,
2013-08-21 14:22:00,79.0,38.0,30.18,North,355,2.0,5.0,23,0.00,,,0.00,,2013-08-21 20:22:00,
2013-08-21 14:52:00,80.0,39.0,30.16,SE,132,1.0,8.0,23,0.00,,,0.00,,2013-08-21 20:52:00,
2013-08-21 15:21:00,80.0,40.0,30.16,NE,55,3.0,7.0,24,0.00,,,0.00,,2013-08-21 21:21:00,
2013-08-21 15:54:00,81.0,37.0,30.14,ENE,78,2.0,6.0,21,0.00,,,0.00,,2013-08-21 21:54:00,
2013-08-21 16:14:00,80.0,35.0,30.14,SE,132,1.0,8.0,20,0.00,,,0.00,,2013-08-21 22:14:00,
2013-08-21 16:24:00,81.0,35.0,30.13,SSE,154,0.0,4.0,19,0.00,,,0.00,,2013-08-21 22:24:00,
2013-08-21 16:53:00,82.0,34.0,30.12,NE,49,1.0,7.0,18,0.00,,,0.00,,2013-08-21 22:53:00,
2013-08-21 17:12:00,83.0,36.0,30.11,NE,52,1.0,6.0,19,0.00,,,0.00,,2013-08-21 23:12:00,
2013-08-21 17:22:00,82.0,34.0,30.11,ENE,78,2.0,5.0,18,0.00,,,0.00,,2013-08-21 23:22:00,
2013-08-21 17:53:00,84.0,34.0,30.10,ENE,74,2.0,7.0,17,0.00,,,0.00,,2013-08-21 23:53:00,
2013-08-21 18:12:00,84.0,34.0,30.09,ENE,59,2.0,5.0,17,0.00,,,0.00,,2013-08-22 00:12:00,
2013-08-21 18:21:00,82.0,34.0,30.09,ENE,76,2.0,7.0,18,0.00,,,0.00,,2013-08-22 00:21:00,
2013-08-21 18:42:00,83.0,35.0,30.09,ENE,65,1.0,4.0,18,0.00,,,0.00,,2013-08-22 00:42:00,
2013-08-21 18:52:00,83.0,35.0,30.09,ENE,60,0.0,4.0,18,0.00,,,0.00,,2013-08-22 00:52:00,
2013-08-21 19:11:00,83.0,38.0,30.09,NE,49,0.0,4.0,20,0.00,,,0.00,,2013-08-22 01:11:00,
2013-08-21 19:22:00,82.0,33.0,30.09,NE,48,3.0,6.0,17,0.00,,,0.00,,2013-08-22 01:22:00,
2013-08-21 19:42:00,82.0,33.0,30.09,NE,44,1.0,6.0,17,0.00,,,0.00,,2013-08-22 01:42:00,
2013-08-21 19:52:00,82.0,34.0,30.08,NE,44,0.0,1.0,18,0.00,,,0.00,,2013-08-22 01:52:00,
2013-08-21 20:12:00,81.0,37.0,30.08,NE,44,0.0,0.0,21,0.00,,,0.00,,2013-08-22 02:12:00,
2013-08-21 20:22:00,80.0,38.0,30.08,NE,44,0.0,0.0,22,0.00,,,0.00,,2013-08-22 02:22:00,
2013-08-21 21:12:00,75.0,37.0,30.09,NE,44,0.0,1.0,25,0.00,,,0.00,,2013-08-22 03:12:00,
2013-08-21 21:22:00,74.0,39.0,30.09,NE,44,0.0,1.0,28,0.00,,,0.00,,2013-08-22 03:22:00,
2013-08-21 21:44:00,72.0,41.0,30.09,NNE,24,0.0,1.0,33,0.00,,,0.00,,2013-08-22 03:44:00,
2013-08-21 21:54:00,70.0,43.0,30.10,NNE,24,0.0,3.0,37,0.00,,,0.00,,2013-08-22 03:54:00,
2013-08-21 22:14:00,69.0,43.0,30.10,NNE,23,0.0,0.0,39,0.00,,,0.00,,2013-08-22 04:14:00,
2013-08-21 22:23:00,67.0,45.0,30.11,NNE,23,0.0,1.0,45,0.00,,,0.00,,2013-08-22 04:23:00,
2013-08-21 22:54:00,64.0,42.0,30.11,NNE,24,0.0,1.0,45,0.00,,,0.00,,2013-08-22 04:54:00,
2013-08-21 23:12:00,64.0,43.0,30.11,NNE,24,0.0,1.0,46,0.00,,,0.00,,2013-08-22 05:12:00,
2013-08-21 23:22:00,63.0,42.0,30.11,NNE,24,0.0,0.0,47,0.00,,,0.00,,2013-08-22 05:22:00,
2013-08-21 23:43:00,62.0,43.0,30.11,NNE,23,0.0,1.0,49,0.00,,,0.00,,2013-08-22 05:43:00,
2013-08-21 23:52:00,61.0,43.0,30.12,NNE,23,0.0,0.0,51,0.00,,,0.00,,2013-08-22 05:52:00,